createdAt,value
2022-08-30T00:02:20.945Z,4.13
2022-08-30T00:04:48.243Z,3.80
2022-08-30T00:07:15.251Z,3.60
2022-08-30T00:09:41.830Z,4.07
2022-08-30T00:12:09.584Z,3.85
2022-08-30T00:14:36.393Z,3.90
2022-08-30T00:17:02.953Z,4.00
2022-08-30T00:19:29.509Z,3.63
2022-08-30T00:21:55.936Z,3.95
2022-08-30T00:24:22.422Z,3.60
2022-08-30T00:26:48.874Z,3.85
2022-08-30T00:29:15.461Z,3.70
2022-08-30T00:31:41.933Z,3.60
2022-08-30T00:34:08.461Z,3.80
2022-08-30T00:36:35.051Z,4.00
2022-08-30T00:39:01.698Z,3.70
2022-08-30T00:41:28.370Z,4.20
2022-08-30T00:43:54.898Z,3.70
2022-08-30T00:46:21.363Z,3.80
2022-08-30T00:48:49.598Z,3.80
2022-08-30T00:51:17.451Z,3.63
2022-08-30T00:53:48.006Z,3.70
2022-08-30T00:56:16.083Z,4.00
2022-08-30T00:58:46.885Z,3.53
2022-08-30T01:01:13.901Z,3.60
2022-08-30T01:03:41.794Z,3.60
2022-08-30T01:06:08.240Z,3.83
2022-08-30T01:08:35.294Z,4.05
2022-08-30T01:11:03.761Z,3.72
2022-08-30T01:13:31.556Z,3.55
2022-08-30T01:16:00.443Z,3.67
2022-08-30T01:18:29.388Z,3.83
2022-08-30T01:21:08.443Z,3.63
2022-08-30T01:23:38.314Z,3.70
2022-08-30T01:26:06.480Z,3.90
2022-08-30T01:28:33.690Z,3.95
2022-08-30T01:31:00.423Z,3.80
2022-08-30T01:33:27.379Z,3.88
2022-08-30T01:36:04.446Z,3.90
2022-08-30T01:38:35.607Z,3.70
2022-08-30T01:41:30.937Z,3.60
2022-08-30T01:44:00.171Z,3.75
2022-08-30T01:46:30.001Z,4.10
2022-08-30T01:48:57.912Z,3.70
2022-08-30T01:51:27.582Z,3.92
2022-08-30T01:53:54.256Z,3.58
2022-08-30T01:56:20.813Z,3.65
2022-08-30T01:58:47.377Z,3.72
2022-08-30T02:01:16.681Z,4.00
2022-08-30T02:03:44.888Z,3.60
2022-08-30T02:06:14.413Z,3.55
2022-08-30T02:08:41.616Z,3.90
2022-08-30T02:11:09.549Z,3.70
2022-08-30T02:13:40.166Z,3.72
2022-08-30T02:16:09.395Z,4.07
2022-08-30T02:18:37.072Z,3.60
2022-08-30T02:21:03.937Z,3.72
2022-08-30T02:23:31.179Z,3.80
2022-08-30T02:25:58.319Z,3.60
2022-08-30T02:28:25.807Z,3.80
2022-08-30T02:30:52.797Z,3.42
2022-08-30T02:33:19.724Z,3.70
2022-08-30T02:35:46.357Z,3.70
2022-08-30T02:38:12.926Z,3.70
2022-08-30T02:40:39.489Z,3.50
2022-08-30T02:43:06.270Z,3.50
2022-08-30T02:45:32.853Z,3.70
2022-08-30T02:47:59.367Z,3.70
2022-08-30T02:50:26.396Z,3.53
2022-08-30T02:52:52.890Z,3.70
2022-08-30T02:55:21.135Z,3.60
2022-08-30T02:57:47.829Z,3.90
2022-08-30T03:00:17.436Z,3.88
2022-08-30T03:02:43.905Z,3.40
2022-08-30T03:05:13.091Z,3.70
2022-08-30T03:07:42.734Z,3.80
2022-08-30T03:10:09.826Z,4.03
2022-08-30T03:12:36.624Z,3.63
2022-08-30T03:15:05.075Z,3.80
2022-08-30T03:17:31.817Z,3.42
2022-08-30T03:20:00.410Z,3.20
2022-08-30T03:22:26.942Z,3.67
2022-08-30T03:24:53.473Z,3.55
2022-08-30T03:27:20.038Z,3.75
2022-08-30T03:29:46.682Z,3.90
2022-08-30T03:32:13.270Z,3.70
2022-08-30T03:34:40.213Z,3.78
2022-08-30T03:37:06.965Z,3.83
2022-08-30T03:39:33.695Z,3.60
2022-08-30T03:42:00.331Z,3.72
2022-08-30T03:44:26.904Z,3.70
2022-08-30T03:46:54.271Z,3.78
2022-08-30T03:49:21.465Z,3.72
2022-08-30T03:51:48.493Z,3.60
2022-08-30T03:54:15.402Z,3.80
2022-08-30T03:56:42.029Z,4.10
2022-08-30T03:59:08.764Z,4.00
2022-08-30T04:01:35.494Z,4.20
2022-08-30T04:04:02.250Z,4.20
2022-08-30T04:06:30.212Z,4.00
2022-08-30T04:08:56.696Z,4.07
2022-08-30T04:11:23.176Z,3.70
2022-08-30T04:13:51.932Z,3.50
2022-08-30T04:16:20.039Z,3.60
2022-08-30T04:18:46.832Z,3.40
2022-08-30T04:21:14.260Z,3.55
2022-08-30T04:23:40.897Z,3.40
2022-08-30T04:26:07.564Z,3.60
2022-08-30T04:28:35.258Z,3.65
2022-08-30T04:31:11.781Z,3.60
2022-08-30T04:33:39.573Z,3.13
2022-08-30T04:36:07.618Z,3.55
2022-08-30T04:38:35.151Z,3.25
2022-08-30T04:41:03.121Z,3.42
2022-08-30T04:43:29.816Z,3.63
2022-08-30T04:45:57.142Z,3.33
2022-08-30T04:48:24.001Z,3.47
2022-08-30T04:50:50.528Z,3.55
2022-08-30T04:53:17.403Z,3.25
2022-08-30T04:55:44.599Z,3.50
2022-08-30T04:58:11.904Z,3.55
2022-08-30T05:00:42.153Z,3.40
2022-08-30T05:05:41.785Z,3.17
2022-08-30T05:08:14.033Z,3.17
2022-08-30T05:10:43.702Z,3.20
2022-08-30T05:13:11.461Z,3.40
2022-08-30T05:15:39.853Z,3.28
2022-08-30T05:18:08.030Z,3.30
2022-08-30T05:20:39.457Z,3.28
2022-08-30T05:23:06.621Z,2.88
2022-08-30T05:25:37.097Z,2.90
2022-08-30T05:28:04.288Z,3.30
2022-08-30T05:30:33.592Z,3.10
2022-08-30T05:33:00.448Z,3.45
2022-08-30T05:35:27.008Z,2.97
2022-08-30T05:37:54.306Z,2.90
2022-08-30T05:40:21.680Z,3.47
2022-08-30T05:42:48.396Z,3.22
2022-08-30T05:45:15.711Z,3.08
2022-08-30T05:47:42.304Z,3.25
2022-08-30T05:50:09.369Z,3.00
2022-08-30T05:52:41.634Z,2.75
2022-08-30T05:55:09.362Z,2.60
2022-08-30T05:57:38.089Z,3.00
2022-08-30T06:00:09.821Z,3.00
2022-08-30T06:02:36.416Z,2.72
2022-08-30T06:05:05.156Z,2.60
2022-08-30T06:07:32.462Z,2.75
2022-08-30T06:09:59.025Z,2.50
2022-08-30T06:12:25.864Z,2.50
2022-08-30T06:14:53.578Z,2.80
2022-08-30T06:17:20.381Z,2.65
2022-08-30T06:19:48.515Z,3.08
2022-08-30T06:22:15.013Z,2.60
2022-08-30T06:24:57.075Z,2.65
2022-08-30T06:27:24.516Z,2.78
2022-08-30T06:29:52.647Z,2.70
2022-08-30T06:32:19.446Z,2.80
2022-08-30T06:34:45.979Z,2.53
2022-08-30T06:37:12.464Z,2.47
2022-08-30T06:39:57.516Z,2.50
2022-08-30T06:42:24.594Z,2.80
2022-08-30T06:44:51.487Z,2.55
2022-08-30T06:47:18.505Z,2.72
2022-08-30T06:49:45.001Z,2.70
2022-08-30T06:52:11.731Z,2.80
2022-08-30T06:54:38.683Z,2.60
2022-08-30T06:57:05.318Z,2.75
2022-08-30T06:59:32.588Z,2.72
2022-08-30T07:01:59.225Z,2.60
2022-08-30T07:04:26.134Z,2.30
2022-08-30T07:06:53.355Z,2.60
2022-08-30T07:09:22.829Z,2.70
2022-08-30T07:11:50.443Z,2.42
2022-08-30T07:14:17.047Z,2.70
2022-08-30T07:16:44.599Z,2.70
2022-08-30T07:19:20.294Z,2.80
2022-08-30T07:21:49.000Z,2.60
2022-08-30T07:24:16.459Z,2.63
2022-08-30T07:26:49.670Z,2.90
2022-08-30T07:29:17.243Z,2.83
2022-08-30T07:31:44.046Z,2.88
2022-08-30T07:34:10.858Z,3.10
2022-08-30T07:36:38.745Z,3.00
2022-08-30T07:39:06.301Z,3.40
2022-08-30T07:41:36.441Z,3.25
2022-08-30T07:44:03.405Z,3.17
2022-08-30T07:46:30.118Z,3.00
2022-08-30T07:48:56.895Z,3.00
2022-08-30T07:51:26.080Z,3.15
2022-08-30T07:53:55.968Z,3.45
2022-08-30T07:56:23.336Z,3.22
2022-08-30T07:58:50.319Z,3.60
2022-08-30T08:01:17.962Z,3.50
2022-08-30T08:03:45.464Z,3.60
2022-08-30T08:06:14.427Z,3.35
2022-08-30T08:08:42.284Z,3.30
2022-08-30T08:11:10.764Z,3.50
2022-08-30T08:13:47.966Z,3.65
2022-08-30T08:16:22.266Z,3.63
2022-08-30T08:18:48.862Z,3.70
2022-08-30T08:21:15.423Z,3.58
2022-08-30T08:23:42.024Z,3.53
2022-08-30T08:26:08.534Z,3.90
2022-08-30T08:28:35.170Z,3.53
2022-08-30T08:31:01.834Z,3.85
2022-08-30T08:33:28.443Z,3.47
2022-08-30T08:35:55.310Z,3.40
2022-08-30T08:38:21.894Z,3.45
2022-08-30T08:41:05.799Z,3.58
2022-08-30T08:43:35.914Z,3.83
2022-08-30T08:46:30.843Z,4.05
2022-08-30T08:49:04.749Z,3.90
2022-08-30T08:51:52.897Z,3.70
2022-08-30T08:54:33.079Z,3.72
2022-08-30T08:57:01.040Z,3.85
2022-08-30T08:59:27.789Z,3.78
2022-08-30T09:01:58.382Z,3.92
2022-08-30T09:04:32.744Z,4.07
2022-08-30T09:07:14.410Z,3.85
2022-08-30T09:09:41.716Z,3.95
2022-08-30T09:12:11.099Z,3.80
2022-08-30T09:14:46.604Z,4.40
2022-08-30T09:17:17.242Z,3.88
2022-08-30T09:19:54.137Z,3.63
2022-08-30T09:22:40.016Z,4.00
2022-08-30T09:25:12.650Z,3.60
2022-08-30T09:27:42.497Z,3.60
2022-08-30T09:30:14.234Z,3.90
2022-08-30T09:32:49.725Z,3.80
2022-08-30T09:35:38.274Z,3.25
2022-08-30T09:38:19.805Z,3.70
2022-08-30T09:40:49.661Z,3.20
2022-08-30T09:43:16.199Z,3.60
2022-08-30T09:45:46.620Z,3.22
2022-08-30T09:48:40.422Z,3.45
2022-08-30T09:51:15.902Z,3.15
2022-08-30T09:54:21.276Z,3.53
2022-08-30T09:57:03.616Z,2.97
2022-08-30T09:59:42.560Z,3.30
2022-08-30T10:02:37.422Z,3.00
2022-08-30T10:05:32.432Z,3.50
2022-08-30T10:08:14.010Z,3.30
2022-08-30T10:11:03.764Z,3.05
2022-08-30T10:13:56.419Z,3.20
2022-08-30T10:16:41.847Z,3.60
2022-08-30T10:19:25.220Z,3.35
2022-08-30T10:22:04.807Z,3.63
2022-08-30T10:24:37.842Z,3.72
2022-08-30T10:27:13.724Z,3.85
2022-08-30T10:29:42.474Z,4.07
2022-08-30T10:32:39.582Z,3.92
2022-08-30T10:35:24.691Z,3.80
2022-08-30T10:37:57.184Z,3.75
2022-08-30T10:40:45.916Z,3.75
2022-08-30T10:43:41.490Z,3.97
2022-08-30T10:46:14.500Z,4.22
2022-08-30T10:48:47.539Z,3.70
2022-08-30T10:51:28.073Z,3.40
2022-08-30T10:54:19.532Z,3.50
2022-08-30T10:56:49.380Z,3.58
2022-08-30T10:59:18.390Z,3.80
2022-08-30T11:02:07.283Z,3.70
2022-08-30T11:05:01.099Z,3.83
2022-08-30T11:08:05.313Z,3.53
2022-08-30T11:11:05.191Z,3.70
2022-08-30T11:13:36.561Z,3.60
2022-08-30T11:16:07.205Z,3.80
2022-08-30T11:18:50.910Z,4.10
2022-08-30T11:21:23.152Z,4.15
2022-08-30T11:26:59.225Z,4.25
2022-08-30T11:29:30.841Z,4.07
2022-08-30T11:32:11.758Z,4.40
2022-08-30T11:37:13.786Z,4.40
2022-08-30T11:39:44.023Z,4.60
2022-08-30T11:42:31.990Z,4.15
2022-08-30T11:45:25.181Z,4.00
2022-08-30T11:47:53.973Z,4.22
2022-08-30T11:50:39.233Z,3.88
2022-08-30T11:53:13.833Z,4.28
2022-08-30T11:55:55.470Z,4.10
2022-08-30T11:58:32.662Z,4.30
2022-08-30T12:01:42.304Z,4.50
2022-08-30T12:04:25.486Z,4.30
2022-08-30T12:06:59.106Z,4.30
2022-08-30T12:09:26.358Z,4.40
2022-08-30T12:12:04.242Z,3.92
2022-08-30T12:14:48.921Z,4.10
2022-08-30T12:17:48.525Z,4.10
2022-08-30T12:20:26.062Z,4.13
2022-08-30T12:22:53.663Z,4.07
2022-08-30T12:25:32.786Z,4.32
2022-08-30T12:28:21.930Z,4.00
2022-08-30T12:30:49.184Z,4.25
2022-08-30T12:33:28.888Z,4.20
2022-08-30T12:35:58.254Z,4.15
2022-08-30T12:38:25.646Z,3.75
2022-08-30T12:40:58.337Z,4.20
2022-08-30T12:43:47.298Z,4.10
2022-08-30T12:46:19.820Z,3.95
2022-08-30T12:48:48.019Z,4.60
2022-08-30T12:51:50.068Z,4.20
2022-08-30T12:54:21.016Z,4.13
2022-08-30T12:57:13.929Z,4.25
2022-08-30T12:59:59.172Z,4.30
2022-08-30T13:02:44.137Z,4.53
2022-08-30T13:05:45.464Z,4.30
2022-08-30T13:08:16.407Z,4.15
2022-08-30T13:11:07.934Z,3.90
2022-08-30T13:13:39.968Z,4.20
2022-08-30T13:16:29.518Z,4.03
2022-08-30T13:19:33.719Z,3.67
2022-08-30T13:22:01.762Z,3.90
2022-08-30T13:24:28.577Z,4.00
2022-08-30T13:26:58.396Z,3.67
2022-08-30T13:29:28.157Z,4.10
2022-08-30T13:31:55.742Z,4.00
2022-08-30T13:34:22.853Z,3.90
2022-08-30T13:36:53.201Z,3.90
2022-08-30T13:39:21.659Z,3.78
2022-08-30T13:41:49.874Z,4.00
2022-08-30T13:44:18.912Z,4.30
2022-08-30T13:46:54.130Z,4.03
2022-08-30T13:49:43.925Z,3.60
2022-08-30T13:52:22.131Z,4.03
2022-08-30T13:54:51.141Z,4.18
2022-08-30T13:57:53.847Z,4.00
2022-08-30T14:00:12.283Z,4.18
2022-08-30T14:02:45.489Z,3.90
2022-08-30T14:05:46.309Z,3.80
2022-08-30T14:08:01.226Z,3.80
2022-08-30T14:10:31.596Z,3.83
2022-08-30T14:13:07.820Z,4.05
2022-08-30T14:15:35.562Z,3.80
2022-08-30T14:18:06.740Z,3.88
2022-08-30T14:20:35.460Z,3.70
2022-08-30T14:23:10.049Z,3.88
2022-08-30T14:25:36.974Z,3.88
2022-08-30T14:28:03.700Z,3.65
2022-08-30T14:30:30.154Z,3.80
2022-08-30T14:32:56.575Z,3.85
2022-08-30T14:35:23.192Z,4.30
2022-08-30T14:37:50.649Z,4.80
2022-08-30T14:40:18.762Z,4.50
2022-08-30T14:42:45.340Z,4.40
2022-08-30T14:45:12.090Z,4.35
2022-08-30T14:47:38.645Z,4.30
2022-08-30T14:50:06.284Z,4.28
2022-08-30T14:52:33.755Z,3.97
2022-08-30T14:55:08.621Z,4.20
2022-08-30T14:57:36.609Z,4.10
2022-08-30T15:00:08.545Z,3.97
2022-08-30T15:02:35.247Z,4.13
2022-08-30T15:05:01.928Z,4.50
2022-08-30T15:07:28.584Z,4.05
2022-08-30T15:09:55.164Z,4.45
2022-08-30T15:12:21.652Z,5.10
2022-08-30T15:14:48.090Z,4.57
2022-08-30T15:17:14.628Z,4.20
2022-08-30T15:19:41.869Z,4.38
2022-08-30T15:22:09.226Z,4.50
2022-08-30T15:24:36.737Z,3.97
2022-08-30T15:27:04.904Z,3.75
2022-08-30T15:29:32.820Z,4.28
2022-08-30T15:32:00.399Z,4.35
2022-08-30T15:34:28.341Z,3.92
2022-08-30T15:36:58.389Z,4.20
2022-08-30T15:39:25.198Z,3.97
2022-08-30T15:41:57.075Z,4.10
2022-08-30T15:44:25.527Z,4.13
2022-08-30T15:46:52.538Z,4.10
2022-08-30T15:49:21.490Z,3.90
2022-08-30T15:51:51.641Z,4.10
2022-08-30T15:54:22.525Z,4.25
2022-08-30T15:56:48.994Z,4.40
2022-08-30T15:59:17.485Z,4.13
2022-08-30T16:01:45.354Z,4.07
2022-08-30T16:04:17.158Z,3.80
2022-08-30T16:06:46.276Z,3.33
2022-08-30T16:09:13.400Z,3.60
2022-08-30T16:11:39.909Z,3.72
2022-08-30T16:14:07.164Z,3.97
2022-08-30T16:16:34.568Z,3.70
2022-08-30T16:19:01.572Z,3.70
2022-08-30T16:21:30.749Z,3.40
2022-08-30T16:23:59.822Z,3.70
2022-08-30T16:26:27.548Z,3.90
2022-08-30T16:28:54.717Z,3.72
2022-08-30T16:31:22.312Z,3.50
2022-08-30T16:33:52.703Z,3.60
2022-08-30T16:36:21.204Z,3.60
2022-08-30T16:38:48.579Z,4.10
2022-08-30T16:41:21.081Z,3.90
2022-08-30T16:43:49.361Z,3.80
2022-08-30T16:46:17.891Z,3.80
2022-08-30T16:48:45.622Z,3.70
2022-08-30T16:51:18.115Z,3.90
2022-08-30T16:53:45.204Z,3.38
2022-08-30T16:56:15.701Z,3.78
2022-08-30T16:58:44.731Z,3.78
2022-08-30T17:01:13.096Z,3.67
2022-08-30T17:03:40.293Z,3.53
2022-08-30T17:06:07.180Z,3.67
2022-08-30T17:08:33.646Z,3.53
2022-08-30T17:11:00.345Z,3.97
2022-08-30T17:13:26.924Z,4.00
2022-08-30T17:15:53.367Z,3.80
2022-08-30T17:18:19.956Z,3.90
2022-08-30T17:20:46.495Z,3.60
2022-08-30T17:23:13.090Z,4.00
2022-08-30T17:25:41.103Z,3.95
2022-08-30T17:28:08.114Z,3.90
2022-08-30T17:30:35.203Z,3.90
2022-08-30T17:33:02.452Z,4.38
2022-08-30T17:35:28.957Z,3.47
2022-08-30T17:37:55.434Z,3.83
2022-08-30T17:40:22.310Z,3.50
2022-08-30T17:42:49.092Z,3.50
2022-08-30T17:45:17.347Z,3.70
2022-08-30T17:47:44.188Z,3.80
2022-08-30T17:50:12.040Z,3.70
2022-08-30T17:52:38.763Z,3.30
2022-08-30T17:55:07.318Z,3.88
2022-08-30T17:57:34.138Z,3.47
2022-08-30T18:00:06.217Z,3.72
2022-08-30T18:02:34.608Z,3.58
2022-08-30T18:05:01.131Z,3.55
2022-08-30T18:07:27.866Z,3.50
2022-08-30T18:09:54.597Z,3.45
2022-08-30T18:12:22.151Z,3.83
2022-08-30T18:14:53.002Z,3.25
2022-08-30T18:17:20.988Z,3.22
2022-08-30T18:19:47.539Z,3.40
2022-08-30T18:22:16.180Z,3.30
2022-08-30T18:24:42.718Z,3.72
2022-08-30T18:27:09.155Z,3.55
2022-08-30T18:29:38.033Z,3.10
2022-08-30T18:32:05.719Z,3.10
2022-08-30T18:34:35.783Z,3.20
2022-08-30T18:37:02.534Z,2.97
2022-08-30T18:39:29.055Z,3.05
2022-08-30T18:42:02.490Z,3.05
2022-08-30T18:44:33.621Z,2.70
2022-08-30T18:49:32.604Z,2.70
2022-08-30T18:51:59.851Z,2.55
2022-08-30T18:54:26.389Z,2.78
2022-08-30T18:56:52.877Z,3.03
2022-08-30T18:59:21.534Z,2.83
2022-08-30T19:01:48.796Z,2.80
2022-08-30T19:04:36.131Z,2.83
2022-08-30T19:07:07.389Z,2.85
2022-08-30T19:09:35.163Z,3.00
2022-08-30T19:12:02.047Z,2.90
2022-08-30T19:14:28.646Z,3.10
2022-08-30T19:16:56.236Z,3.10
2022-08-30T19:19:23.200Z,2.97
2022-08-30T19:21:49.661Z,2.80
2022-08-30T19:24:16.218Z,2.60
2022-08-30T19:26:46.677Z,2.90
2022-08-30T19:29:14.465Z,3.03
2022-08-30T19:31:42.000Z,3.22
2022-08-30T19:34:08.602Z,3.10
2022-08-30T19:36:35.049Z,2.90
2022-08-30T19:39:01.579Z,3.00
2022-08-30T19:41:28.386Z,2.90
2022-08-30T19:43:54.986Z,2.97
2022-08-30T19:46:21.434Z,3.00
2022-08-30T19:48:47.892Z,2.85
2022-08-30T19:51:15.577Z,2.97
2022-08-30T19:53:43.061Z,3.03
2022-08-30T19:56:09.806Z,3.10
2022-08-30T19:58:36.447Z,3.00
2022-08-30T20:01:12.649Z,3.13
2022-08-30T20:03:51.800Z,3.10
2022-08-30T20:06:19.692Z,3.10
2022-08-30T20:08:47.230Z,3.00
2022-08-30T20:11:16.395Z,2.95
2022-08-30T20:13:44.691Z,2.80
2022-08-30T20:16:12.551Z,3.00
2022-08-30T20:18:41.422Z,2.83
2022-08-30T20:21:13.536Z,2.90
2022-08-30T20:23:42.032Z,3.08
2022-08-30T20:26:10.310Z,3.13
2022-08-30T20:28:37.264Z,3.08
2022-08-30T20:31:05.522Z,2.90
2022-08-30T20:33:33.391Z,3.00
2022-08-30T20:36:01.727Z,2.90
2022-08-30T20:38:28.261Z,2.92
2022-08-30T20:40:58.613Z,3.15
2022-08-30T20:45:55.345Z,3.25
2022-08-30T20:48:22.995Z,3.47
2022-08-30T20:50:49.634Z,3.30
2022-08-30T20:53:16.350Z,3.10
2022-08-30T20:55:44.610Z,3.20
2022-08-30T20:58:11.398Z,3.13
2022-08-30T21:00:38.436Z,2.92
2022-08-30T21:03:09.302Z,3.00
2022-08-30T21:05:53.773Z,3.05
2022-08-30T21:08:20.266Z,3.10
2022-08-30T21:10:48.018Z,3.53
2022-08-30T21:13:14.770Z,2.95
2022-08-30T21:15:45.813Z,3.20
2022-08-30T21:18:15.492Z,2.90
2022-08-30T21:20:42.185Z,2.80
2022-08-30T21:23:08.964Z,3.00
2022-08-30T21:25:38.937Z,3.10
2022-08-30T21:28:06.583Z,2.90
2022-08-30T21:30:33.531Z,2.88
2022-08-30T21:33:02.466Z,3.15
2022-08-30T21:35:48.192Z,3.00
2022-08-30T21:38:15.501Z,2.90
2022-08-30T21:40:42.268Z,3.00
2022-08-30T21:43:10.692Z,3.00
2022-08-30T21:45:39.023Z,3.10
2022-08-30T21:48:05.767Z,2.80
2022-08-30T21:50:32.345Z,2.70
2022-08-30T21:52:58.842Z,3.08
2022-08-30T21:55:25.481Z,3.17
2022-08-30T21:57:54.303Z,2.95
2022-08-30T22:00:21.064Z,3.00
2022-08-30T22:02:49.234Z,2.70
2022-08-30T22:05:19.837Z,3.00
2022-08-30T22:07:46.376Z,2.97
2022-08-30T22:10:12.993Z,2.95
2022-08-30T22:12:39.918Z,2.63
2022-08-30T22:15:09.403Z,3.00
2022-08-30T22:17:35.982Z,2.90
2022-08-30T22:20:04.003Z,2.83
2022-08-30T22:22:30.498Z,2.80
2022-08-30T22:24:57.013Z,2.83
2022-08-30T22:27:23.662Z,2.75
2022-08-30T22:29:50.200Z,3.10
2022-08-30T22:32:16.800Z,2.95
2022-08-30T22:34:45.698Z,2.83
2022-08-30T22:37:12.373Z,2.78
2022-08-30T22:39:39.104Z,2.95
2022-08-30T22:42:05.914Z,2.92
2022-08-30T22:44:32.487Z,2.70
2022-08-30T22:47:00.714Z,2.95
2022-08-30T22:49:27.673Z,3.00
2022-08-30T22:51:54.326Z,2.80
2022-08-30T22:54:21.051Z,2.90
2022-08-30T22:56:47.907Z,3.08
2022-08-30T22:59:15.129Z,2.83
2022-08-30T23:01:44.881Z,3.40
2022-08-30T23:04:12.639Z,3.25
2022-08-30T23:06:40.533Z,3.00
2022-08-30T23:09:08.105Z,2.90
2022-08-30T23:11:38.024Z,3.40
2022-08-30T23:14:06.151Z,3.22
2022-08-30T23:16:33.843Z,3.30
2022-08-30T23:19:00.554Z,3.40
2022-08-30T23:21:29.343Z,3.63
2022-08-30T23:24:16.348Z,3.47
2022-08-30T23:27:03.280Z,3.38
2022-08-30T23:29:49.555Z,3.13
2022-08-30T23:32:35.002Z,3.13
2022-08-30T23:35:20.278Z,3.05
2022-08-30T23:38:17.415Z,2.90
2022-08-30T23:41:03.026Z,3.00
2022-08-30T23:43:48.486Z,3.00
2022-08-30T23:46:34.236Z,3.08
2022-08-30T23:49:19.477Z,2.88
2022-08-30T23:52:04.639Z,3.13
2022-08-30T23:54:49.783Z,2.97
2022-08-30T23:57:34.973Z,3.00
